Terminal Aerodrome Forecast
Issued by NWS Tulsa, OK

Home | Current Version | Previous Version | Text Only | Print | Product List | Glossary On
Versions: 1 2 3 4 5 6 7 8 9 10 11 12 13 14 15 16 17
000
FTUS44 KTSA 020500
TAFFSM
TAF
KFSM 020520Z 0206/0306 06006KT P6SM SCT250
     FM020800 VRB06KT P6SM BKN025
      TEMPO 0210/0214 BKN015
     FM021500 20012G20KT P6SM BKN025
     FM021800 20012G20KT P6SM BKN040
     FM030000 VRB06KT P6SM SCT050 SCT250=

USA.gov is the U.S. government's official web portal to all federal, state and local government web resources and services.